Strona główna
METAR-TAF:

METAR-TAF

Lotnisko :

Port lotniczy Tabuk

Tabuk, Arabia Saudyjska

Szerokość geograficzna: 28-22N, Długość geograficzna: 036-36E, wysokość: 778 m

Aktualna obserwacja pogody

Raport powstał 33 minut temu, godzina 00:00 UTC
Wiatr 6 kt od południowo-południowy wschód
Temperatura 20°C
Wilgotność 17%
Ciśnienie 1015 hPa
Widzialność 10 km lub więcej
Brak chmur poniżej 1500 m i brak chmur cumulonimbus

METAR: OETB 050000Z 15006KT CAVOK 20/M06 Q1015 NOSIG

czas: 03:33 (00:33 UTC)

Prognoza

Raport powstał 13 godziny i 33 minut temu, godzina 11:00 UTC
Prognoza ważna od 04 godzina 12 UTC do 05 godzina 18 UTC
Wiatr 10 kt od wschód
Widzialność 10 km lub więcej
Brak chmur poniżej 1500 m i brak chmur cumulonimbus
Stopniowe zmiany
od 04 godzina 18 UTC do 04 godzina 20 UTC
Wiatr 3 kt z kierunków zmiennych
Stopniowe zmiany
od 05 godzina 06 UTC do 05 godzina 08 UTC
Wiatr 10 kt od wschód

TAF: OETB 041100Z 0412/0518 09010KT CAVOK BECMG 0418/0420 VRB03KT BECMG 0506/0508 09010KT

Obserwacja i prognoza pogody dla ponad 4000 lotnisk (raport METAR i TAF).

Dostępne stacje oznaczono żółtymi i czerwonymi punktami na mapie.

Najedź kursorem aby zobaczyć nazwę stacji.

Kliknij aby zobaczyć obserwacje i prognozy pogody.

Aby zmienić mapę: kliknij na zielony przycisk z czarnym krzyżykiem, aby powiększyć; na zielony przycisk z myślnikiem, aby pomniejszyć; na zielone strzałki, aby przejść do map sąsiednich.


METAR-TAF: